Time;durP1;ratioP1;P1;durP2;ratioP2;P2;SDS_P1;SDS_P2;PMS_P1;PMS_P2;Temp;Humidity;BMP_temperature;BMP_pressure;BME280_temperature;BME280_humidity;BME280_pressure;Samples;Min_cycle;Max_cycle;Signal;HPM_P1;HPM_P2
2022/07/20 00:01:41;;;;;;;10.55;2.75;;;22.90;93.70;;;;;;4956868;28;20057;-93
2022/07/20 00:04:12;;;;;;;13.38;2.83;;;22.90;93.50;;;;;;4956985;28;20052;-92
2022/07/20 00:06:38;;;;;;;10.00;2.85;;;22.80;93.50;;;;;;4956758;28;20050;-92
2022/07/20 00:12:08;;;;;;;7.70;2.40;;;22.90;93.00;;;;;;4973633;28;20042;-92
2022/07/20 00:14:37;;;;;;;9.13;2.63;;;22.90;93.10;;;;;;4957585;28;20050;-92
2022/07/20 00:17:10;;;;;;;12.15;3.03;;;22.90;93.20;;;;;;4957418;28;20057;-91
2022/07/20 00:19:36;;;;;;;11.07;2.40;;;22.70;93.10;;;;;;4957514;28;20046;-91
2022/07/20 00:22:04;;;;;;;9.80;2.70;;;22.70;93.10;;;;;;4957540;28;20042;-92
2022/07/20 00:24:33;;;;;;;7.50;2.17;;;22.70;93.00;;;;;;4957194;28;20537;-92
2022/07/20 00:27:01;;;;;;;8.57;2.47;;;22.70;93.20;;;;;;4957771;28;20044;-92
2022/07/20 00:29:29;;;;;;;5.95;2.28;;;22.60;92.90;;;;;;4956546;28;20050;-92
2022/07/20 00:31:58;;;;;;;12.85;3.03;;;22.70;93.00;;;;;;4957942;28;20486;-91
2022/07/20 00:34:26;;;;;;;11.10;2.60;;;22.60;93.00;;;;;;4957126;28;20089;-91
2022/07/20 00:37:12;;;;;;;8.82;2.15;;;22.60;93.00;;;;;;4956599;28;20438;-92
2022/07/20 00:39:38;;;;;;;8.60;2.58;;;22.60;92.70;;;;;;4959434;28;20058;-92
2022/07/20 00:42:14;;;;;;;6.20;2.00;;;22.50;93.40;;;;;;4957275;28;20100;-92
2022/07/20 00:44:48;;;;;;;8.13;2.60;;;22.40;93.60;;;;;;4956455;28;20054;-91
2022/07/20 00:47:24;;;;;;;6.63;2.35;;;22.40;93.40;;;;;;4957826;28;20525;-92
2022/07/20 00:49:53;;;;;;;14.23;2.13;;;22.30;93.70;;;;;;4956607;28;20092;-92
2022/07/20 00:52:24;;;;;;;12.52;2.13;;;22.30;93.30;;;;;;4967629;28;20169;-91
2022/07/20 00:54:53;;;;;;;10.95;2.33;;;22.20;93.20;;;;;;4978376;28;20042;-91
2022/07/20 00:57:21;;;;;;;7.90;2.47;;;22.20;93.10;;;;;;4975643;28;20050;-91
2022/07/20 00:59:49;;;;;;;13.73;3.00;;;22.20;93.40;;;;;;4975463;28;20516;-91
2022/07/20 01:02:21;;;;;;;10.15;2.65;;;22.10;93.70;;;;;;4975877;28;20048;-92
2022/07/20 01:04:47;;;;;;;7.55;2.28;;;22.10;94.00;;;;;;4974727;28;20561;-92
2022/07/20 01:07:14;;;;;;;4.93;2.45;;;22.10;94.10;;;;;;4979707;28;20056;-91
2022/07/20 01:09:42;;;;;;;7.00;2.30;;;22.00;94.10;;;;;;4980361;28;20041;-92
2022/07/20 01:12:12;;;;;;;10.23;2.15;;;22.00;94.60;;;;;;4978808;28;20085;-92
2022/07/20 01:14:38;;;;;;;7.97;2.30;;;21.90;94.60;;;;;;4979769;28;20127;-92
2022/07/20 01:17:04;;;;;;;8.82;2.55;;;21.80;94.20;;;;;;4979966;28;20084;-92
2022/07/20 01:19:35;;;;;;;8.85;2.55;;;21.90;94.10;;;;;;4981076;28;20050;-91
2022/07/20 01:22:06;;;;;;;8.20;2.38;;;21.80;94.10;;;;;;4980167;28;20129;-91
2022/07/20 01:24:44;;;;;;;6.65;2.60;;;21.80;94.00;;;;;;4997413;28;20525;-91
2022/07/20 01:27:13;;;;;;;11.60;2.38;;;21.80;93.90;;;;;;4979411;28;20509;-91
2022/07/20 01:29:49;;;;;;;7.20;2.58;;;21.70;94.00;;;;;;4979797;28;20081;-92
2022/07/20 01:32:15;;;;;;;10.85;2.47;;;21.70;93.90;;;;;;4979904;28;20057;-92
2022/07/20 01:34:51;;;;;;;12.90;2.75;;;21.60;94.10;;;;;;4978696;28;20474;-92
2022/07/20 01:37:17;;;;;;;8.02;2.42;;;21.60;94.40;;;;;;4980388;28;20051;-91
2022/07/20 01:39:56;;;;;;;11.05;2.28;;;21.60;94.80;;;;;;4980829;28;20125;-91
2022/07/20 01:42:22;;;;;;;6.30;2.65;;;21.50;94.60;;;;;;4963955;28;20176;-91
2022/07/20 01:45:02;;;;;;;12.45;3.92;;;21.50;94.50;;;;;;4961554;28;20137;-91
2022/07/20 01:47:28;;;;;;;6.53;2.38;;;21.40;94.50;;;;;;4960931;28;20042;-92
2022/07/20 01:50:01;;;;;;;7.32;2.47;;;21.40;95.00;;;;;;4961576;28;20061;-91
2022/07/20 01:52:27;;;;;;;7.97;2.42;;;21.40;95.30;;;;;;4960222;28;20054;-92
2022/07/20 01:54:55;;;;;;;8.30;2.60;;;21.30;95.80;;;;;;4959638;28;20077;-91
2022/07/20 01:57:23;;;;;;;9.10;3.03;;;21.20;95.80;;;;;;4959920;28;20050;-91
2022/07/20 01:59:49;;;;;;;10.25;3.00;;;21.20;96.50;;;;;;4960372;28;20046;-92
2022/07/20 02:02:18;;;;;;;8.73;3.00;;;21.20;96.50;;;;;;4959270;28;20552;-92
2022/07/20 02:04:48;;;;;;;13.65;3.00;;;21.10;97.30;;;;;;4958657;28;20061;-92
2022/07/20 02:07:14;;;;;;;8.00;2.72;;;21.10;97.40;;;;;;4958831;28;20064;-91
2022/07/20 02:09:43;;;;;;;10.95;2.92;;;21.00;97.50;;;;;;4958802;28;20054;-91
2022/07/20 02:12:16;;;;;;;5.13;2.85;;;21.00;97.10;;;;;;4959259;28;20057;-92
2022/07/20 02:14:44;;;;;;;14.65;2.70;;;21.00;96.80;;;;;;4959673;28;20046;-91
2022/07/20 02:17:15;;;;;;;9.82;2.97;;;20.90;96.60;;;;;;4959212;28;20051;-91
2022/07/20 02:19:50;;;;;;;7.00;2.60;;;20.90;96.40;;;;;;4959516;28;20056;-92
2022/07/20 02:22:16;;;;;;;7.90;2.63;;;20.90;97.10;;;;;;4958448;28;20509;-91
2022/07/20 02:24:45;;;;;;;8.88;2.55;;;20.90;97.30;;;;;;4960070;28;20050;-91
2022/07/20 02:27:11;;;;;;;7.75;2.85;;;20.80;96.80;;;;;;4960737;28;20046;-92
2022/07/20 02:29:37;;;;;;;10.50;2.97;;;20.80;96.60;;;;;;4959160;28;20054;-91
2022/07/20 02:32:03;;;;;;;8.52;2.60;;;20.80;97.20;;;;;;4959731;28;20493;-91
2022/07/20 02:34:31;;;;;;;8.98;2.50;;;20.80;97.70;;;;;;4959856;28;20046;-91
2022/07/20 02:37:02;;;;;;;8.05;2.85;;;20.80;97.50;;;;;;4959061;28;20111;-91
2022/07/20 02:39:28;;;;;;;9.93;2.78;;;20.70;97.10;;;;;;4959116;28;20100;-92
2022/07/20 02:41:54;;;;;;;11.55;2.60;;;20.70;97.20;;;;;;4959688;28;20038;-92
2022/07/20 02:44:23;;;;;;;7.03;2.85;;;20.70;97.90;;;;;;4960194;28;20057;-92
2022/07/20 02:46:48;;;;;;;11.82;3.08;;;20.60;98.20;;;;;;4961501;28;20050;-92
2022/07/20 02:49:14;;;;;;;11.68;3.08;;;20.60;98.10;;;;;;4961604;28;20141;-92
2022/07/20 02:51:40;;;;;;;8.05;2.50;;;20.60;98.10;;;;;;4957066;28;20189;-92
2022/07/20 02:54:06;;;;;;;10.68;2.72;;;20.50;98.30;;;;;;4958904;28;20046;-91
2022/07/20 02:56:34;;;;;;;10.50;3.22;;;20.50;97.90;;;;;;4958148;28;20046;-91
2022/07/20 02:59:00;;;;;;;7.50;2.60;;;20.50;98.20;;;;;;4959020;28;20053;-92
2022/07/20 03:01:26;;;;;;;8.40;2.70;;;20.40;98.70;;;;;;4958276;28;20413;-92
2022/07/20 03:03:52;;;;;;;11.63;2.83;;;20.40;98.30;;;;;;4960643;28;20054;-92
2022/07/20 03:06:20;;;;;;;8.70;2.90;;;20.40;98.10;;;;;;4957613;28;20046;-91
2022/07/20 03:08:46;;;;;;;10.40;3.00;;;20.40;98.50;;;;;;4959393;28;20082;-92
2022/07/20 03:11:11;;;;;;;7.80;2.50;;;20.30;98.70;;;;;;4957710;28;20046;-91
2022/07/20 03:13:40;;;;;;;12.20;3.53;;;20.30;98.90;;;;;;4960180;28;20046;-92
2022/07/20 03:16:06;;;;;;;9.35;2.92;;;20.30;98.30;;;;;;4958484;28;20393;-91
2022/07/20 03:18:32;;;;;;;10.98;2.88;;;20.20;98.30;;;;;;4954889;28;20058;-92
2022/07/20 03:20:58;;;;;;;9.63;3.03;;;20.30;98.50;;;;;;4941062;28;20398;-92
2022/07/20 03:23:24;;;;;;;4.90;2.65;;;20.20;98.40;;;;;;4972705;28;20062;-92
2022/07/20 03:25:50;;;;;;;7.30;2.22;;;20.20;99.00;;;;;;4970577;28;20043;-91
2022/07/20 03:28:18;;;;;;;6.55;2.83;;;20.20;98.90;;;;;;4939112;28;20097;-91
2022/07/20 03:30:43;;;;;;;8.20;3.10;;;20.20;99.20;;;;;;4970832;28;20047;-91
2022/07/20 03:33:09;;;;;;;7.85;2.88;;;20.20;99.10;;;;;;4970414;28;20050;-91
2022/07/20 03:35:38;;;;;;;7.50;2.75;;;20.10;98.90;;;;;;4969757;28;20061;-91
2022/07/20 03:38:03;;;;;;;9.65;2.92;;;20.00;99.30;;;;;;4938552;28;20114;-91
2022/07/20 03:40:29;;;;;;;19.58;4.13;;;20.10;99.40;;;;;;4978084;28;20089;-91
2022/07/20 03:42:55;;;;;;;10.25;3.03;;;20.10;99.30;;;;;;4971997;28;20105;-92
2022/07/20 03:45:21;;;;;;;7.10;3.00;;;20.00;99.70;;;;;;4954756;28;20046;-92
2022/07/20 03:47:47;;;;;;;6.15;2.55;;;20.00;99.80;;;;;;4970401;28;20058;-92
2022/07/20 03:50:13;;;;;;;8.60;2.63;;;20.00;99.90;;;;;;4970148;28;20047;-91
2022/07/20 03:52:39;;;;;;;6.03;2.95;;;20.00;99.90;;;;;;4970929;28;20046;-92
2022/07/20 03:55:05;;;;;;;5.88;2.80;;;20.00;99.90;;;;;;4970373;28;20409;-92
2022/07/20 03:57:31;;;;;;;7.47;2.55;;;20.00;99.90;;;;;;4940184;28;20043;-91
2022/07/20 03:59:57;;;;;;;8.27;2.70;;;20.00;99.90;;;;;;4982911;28;20550;-91
2022/07/20 04:02:23;;;;;;;7.88;2.47;;;19.90;99.90;;;;;;4963308;28;20038;-91
2022/07/20 04:04:48;;;;;;;10.77;2.65;;;19.90;99.90;;;;;;4942265;28;20161;-92
2022/07/20 04:07:14;;;;;;;11.52;2.72;;;20.00;99.90;;;;;;4976190;28;20050;-91
2022/07/20 04:09:47;;;;;;;6.15;2.40;;;20.00;99.90;;;;;;4975953;28;20060;-91
2022/07/20 04:12:16;;;;;;;11.88;2.47;;;20.10;99.90;;;;;;4976498;28;20477;-90
2022/07/20 04:14:43;;;;;;;7.10;2.60;;;20.20;99.90;;;;;;4976098;28;20084;-91
2022/07/20 04:17:09;;;;;;;6.75;2.40;;;20.20;99.90;;;;;;4977536;28;20145;-91
2022/07/20 04:19:39;;;;;;;10.40;2.78;;;20.20;99.90;;;;;;4996872;28;20132;-91
2022/07/20 04:22:11;;;;;;;8.45;2.67;;;20.20;99.90;;;;;;5003438;28;20117;-90
2022/07/20 04:24:37;;;;;;;11.27;2.63;;;20.20;99.90;;;;;;5006254;28;20058;-91
2022/07/20 04:27:04;;;;;;;6.18;2.50;;;20.30;99.90;;;;;;4992296;28;20042;-91
2022/07/20 04:29:30;;;;;;;8.82;2.83;;;20.30;99.90;;;;;;4986518;28;20061;-91
2022/07/20 04:31:56;;;;;;;5.72;2.50;;;20.40;99.90;;;;;;4982872;28;20482;-91
2022/07/20 04:34:22;;;;;;;7.60;2.78;;;20.40;99.90;;;;;;4985255;28;20046;-91
2022/07/20 04:36:48;;;;;;;5.03;2.30;;;20.50;99.90;;;;;;4986510;28;20076;-91
2022/07/20 04:39:14;;;;;;;5.60;2.45;;;20.60;99.90;;;;;;4987928;28;20048;-92
2022/07/20 04:41:40;;;;;;;7.57;2.40;;;20.60;99.90;;;;;;4993669;28;20477;-92
2022/07/20 04:44:06;;;;;;;7.63;2.55;;;20.60;99.90;;;;;;4993516;28;20136;-92
2022/07/20 04:46:32;;;;;;;8.07;2.55;;;20.70;99.90;;;;;;4986577;28;20434;-91
2022/07/20 04:48:58;;;;;;;13.73;2.50;;;20.70;99.90;;;;;;4981063;28;20165;-92
2022/07/20 04:51:24;;;;;;;7.85;2.60;;;20.70;99.90;;;;;;4978692;28;20129;-92
2022/07/20 04:53:50;;;;;;;10.13;2.70;;;20.70;99.90;;;;;;4981468;28;20133;-93
2022/07/20 04:56:18;;;;;;;8.57;2.47;;;20.70;99.90;;;;;;4980076;28;20046;-93
2022/07/20 04:58:44;;;;;;;7.18;2.20;;;20.80;99.90;;;;;;4981588;28;20049;-92
2022/07/20 05:01:09;;;;;;;10.60;2.80;;;20.80;99.90;;;;;;4980496;28;20486;-92
2022/07/20 05:03:35;;;;;;;10.85;3.00;;;20.90;99.90;;;;;;4979647;28;20052;-93
2022/07/20 05:06:01;;;;;;;10.65;2.78;;;20.90;99.90;;;;;;4980729;28;20453;-92
2022/07/20 05:08:27;;;;;;;6.47;2.42;;;21.00;99.90;;;;;;4979669;28;20046;-91
2022/07/20 05:10:53;;;;;;;15.63;2.30;;;21.00;99.90;;;;;;4980413;28;20050;-92
2022/07/20 05:13:18;;;;;;;9.27;2.97;;;21.10;99.90;;;;;;4976424;28;20049;-92
2022/07/20 05:15:44;;;;;;;6.63;2.60;;;21.20;99.90;;;;;;4963168;28;20077;-92
2022/07/20 05:18:10;;;;;;;7.82;2.75;;;21.30;99.90;;;;;;4956632;28;20058;-93
2022/07/20 05:20:36;;;;;;;10.85;2.75;;;21.40;99.90;;;;;;4957031;28;20578;-93
2022/07/20 05:23:01;;;;;;;8.27;2.83;;;21.50;99.90;;;;;;4957665;28;20090;-92
2022/07/20 05:25:27;;;;;;;7.25;2.80;;;21.60;99.90;;;;;;4956886;28;20050;-91
2022/07/20 05:27:53;;;;;;;11.95;3.00;;;21.70;99.90;;;;;;4957483;28;20487;-92
2022/07/20 05:30:19;;;;;;;10.40;3.63;;;21.80;99.90;;;;;;4957298;28;20051;-91
2022/07/20 05:32:45;;;;;;;7.93;2.97;;;21.90;99.90;;;;;;4956948;28;20082;-92
2022/07/20 05:35:11;;;;;;;7.13;2.90;;;22.10;99.90;;;;;;4959359;28;20066;-93
2022/07/20 05:37:36;;;;;;;20.60;4.00;;;22.00;99.90;;;;;;4959406;28;20072;-92
2022/07/20 05:40:03;;;;;;;10.98;3.13;;;22.20;99.90;;;;;;4956640;28;20185;-93
2022/07/20 05:42:28;;;;;;;12.23;2.72;;;22.40;99.90;;;;;;4957263;28;20050;-92
2022/07/20 05:44:54;;;;;;;7.80;2.80;;;22.50;99.90;;;;;;4957408;28;20552;-92
2022/07/20 05:47:21;;;;;;;10.50;2.60;;;22.60;99.70;;;;;;4956491;28;20050;-93
2022/07/20 05:49:48;;;;;;;6.43;2.20;;;22.70;99.40;;;;;;4940897;28;20133;-93
2022/07/20 05:52:15;;;;;;;7.47;2.90;;;22.80;99.30;;;;;;4956778;28;20058;-93
2022/07/20 05:54:41;;;;;;;9.45;2.70;;;22.90;99.10;;;;;;4957730;28;20056;-93
2022/07/20 05:57:07;;;;;;;9.63;3.08;;;23.00;99.50;;;;;;4944865;28;20053;-93
2022/07/20 05:59:33;;;;;;;7.50;2.45;;;23.10;99.80;;;;;;4958248;28;20082;-91
2022/07/20 06:01:59;;;;;;;8.35;3.05;;;23.20;99.60;;;;;;4955469;28;20043;-91
2022/07/20 06:04:25;;;;;;;10.52;2.65;;;23.40;99.70;;;;;;4955570;28;20053;-92
2022/07/20 06:06:51;;;;;;;5.90;2.63;;;23.40;99.80;;;;;;4957717;28;20389;-93
2022/07/20 06:09:17;;;;;;;8.60;2.47;;;23.50;99.90;;;;;;4955804;28;20049;-92
2022/07/20 06:11:43;;;;;;;9.00;2.85;;;23.60;99.90;;;;;;4956789;28;20043;-92
2022/07/20 06:14:08;;;;;;;8.40;2.70;;;23.70;99.90;;;;;;4955290;28;20046;-92
2022/07/20 06:16:34;;;;;;;8.13;3.00;;;23.80;99.90;;;;;;4955897;28;20079;-93
2022/07/20 06:19:00;;;;;;;8.20;2.70;;;23.90;99.90;;;;;;4962496;28;20054;-92
2022/07/20 06:21:26;;;;;;;15.23;2.70;;;24.00;99.90;;;;;;4980969;28;20050;-93
2022/07/20 06:23:52;;;;;;;13.80;3.00;;;24.10;99.90;;;;;;4969136;28;20038;-92
2022/07/20 06:26:18;;;;;;;10.15;2.70;;;24.20;99.90;;;;;;4968975;28;20121;-92
2022/07/20 06:28:44;;;;;;;12.05;2.78;;;24.30;99.90;;;;;;4966335;28;20575;-93
2022/07/20 06:31:09;;;;;;;10.57;2.70;;;24.40;99.90;;;;;;4965324;28;20084;-94
2022/07/20 06:33:35;;;;;;;7.85;2.38;;;24.50;99.90;;;;;;4970873;28;20088;-93
2022/07/20 06:36:01;;;;;;;5.40;2.70;;;24.60;99.90;;;;;;4967039;28;20045;-94
2022/07/20 06:38:27;;;;;;;10.35;2.80;;;24.70;99.90;;;;;;4973473;28;20483;-94
2022/07/20 06:40:55;;;;;;;6.63;2.90;;;24.80;99.90;;;;;;4966910;28;20132;-93
2022/07/20 06:43:24;;;;;;;9.82;3.03;;;24.90;99.90;;;;;;4963927;28;20054;-91
2022/07/20 06:45:53;;;;;;;11.70;2.80;;;25.00;99.90;;;;;;4963716;28;20410;-91
2022/07/20 06:48:19;;;;;;;8.95;3.13;;;25.10;99.90;;;;;;4961025;28;20043;-90
2022/07/20 06:50:46;;;;;;;7.82;2.95;;;25.20;99.90;;;;;;4970795;28;20053;-90
2022/07/20 06:53:12;;;;;;;9.27;3.00;;;25.30;99.90;;;;;;4969547;28;20133;-91
2022/07/20 06:55:37;;;;;;;8.10;3.13;;;25.40;99.90;;;;;;4997146;23;20132;-93
2022/07/20 06:58:03;;;;;;;9.60;2.78;;;25.50;99.90;;;;;;4995923;28;20053;-90
2022/07/20 07:00:29;;;;;;;14.88;3.30;;;25.60;99.90;;;;;;4994047;28;20405;-91
2022/07/20 07:02:55;;;;;;;11.75;2.72;;;25.80;99.40;;;;;;5012677;28;20801;-93
2022/07/20 07:05:21;;;;;;;13.05;3.10;;;25.90;98.50;;;;;;5010374;28;20132;-89
2022/07/20 07:07:47;;;;;;;11.88;3.17;;;26.00;97.60;;;;;;5013292;28;20048;-89
2022/07/20 07:10:13;;;;;;;17.02;2.92;;;26.20;97.70;;;;;;4994239;28;20524;-88
2022/07/20 07:12:39;;;;;;;12.05;3.20;;;26.30;96.70;;;;;;5009482;28;20081;-88
2022/07/20 07:15:05;;;;;;;8.23;3.17;;;26.40;96.70;;;;;;5004664;28;20050;-91
2022/07/20 07:17:31;;;;;;;9.57;2.80;;;26.60;96.00;;;;;;4993859;28;20371;-89
2022/07/20 07:19:58;;;;;;;9.27;2.97;;;26.70;95.40;;;;;;5012373;28;20550;-89
2022/07/20 07:22:26;;;;;;;8.00;2.95;;;26.80;95.20;;;;;;4992622;28;20611;-90
2022/07/20 07:24:51;;;;;;;13.13;3.25;;;26.90;94.40;;;;;;4996614;28;20049;-90
2022/07/20 07:27:17;;;;;;;7.93;2.67;;;27.00;93.60;;;;;;5013461;28;20447;-93
2022/07/20 07:29:43;;;;;;;12.52;3.33;;;27.10;93.80;;;;;;4994778;28;20080;-92
2022/07/20 07:32:09;;;;;;;14.98;3.08;;;27.20;94.10;;;;;;4995498;28;20042;-93
2022/07/20 07:34:40;;;;;;;11.45;3.13;;;27.30;93.50;;;;;;4997143;28;20045;-91
2022/07/20 07:37:06;;;;;;;15.77;2.97;;;27.40;92.10;;;;;;5012606;28;20049;-92
2022/07/20 07:39:32;;;;;;;14.25;3.33;;;27.50;92.20;;;;;;4996754;28;20049;-93
2022/07/20 07:41:57;;;;;;;12.30;3.00;;;27.50;91.40;;;;;;5012325;28;20551;-93
2022/07/20 07:44:23;;;;;;;11.95;2.95;;;27.60;90.90;;;;;;4996227;28;20049;-92
2022/07/20 07:46:49;;;;;;;8.20;3.42;;;27.70;92.10;;;;;;4995731;28;20124;-93
2022/07/20 07:49:15;;;;;;;9.45;3.60;;;27.80;92.10;;;;;;4996216;28;20469;-92
2022/07/20 07:51:41;;;;;;;15.35;3.40;;;27.80;91.00;;;;;;4996215;28;20529;-90
2022/07/20 07:54:07;;;;;;;13.73;4.00;;;27.80;91.20;;;;;;4995135;28;20068;-91
2022/07/20 07:56:33;;;;;;;11.65;4.22;;;27.90;91.10;;;;;;4995832;28;20493;-90
2022/07/20 07:58:58;;;;;;;12.98;3.75;;;28.00;90.50;;;;;;4994886;28;20409;-91
2022/07/20 08:01:24;;;;;;;11.65;3.97;;;28.00;90.50;;;;;;5010888;28;20045;-91
2022/07/20 08:03:50;;;;;;;9.38;3.60;;;28.00;90.90;;;;;;4993849;28;20045;-91
2022/07/20 08:06:16;;;;;;;14.10;4.10;;;28.10;90.60;;;;;;4993993;28;20053;-91
2022/07/20 08:08:41;;;;;;;13.60;4.13;;;28.20;90.90;;;;;;4994745;28;20054;-90
2022/07/20 08:11:08;;;;;;;12.40;4.30;;;28.20;91.30;;;;;;4995528;28;20426;-90
2022/07/20 08:13:34;;;;;;;14.40;4.97;;;28.20;91.40;;;;;;4993212;28;20049;-90
2022/07/20 08:15:59;;;;;;;9.10;3.97;;;28.30;91.60;;;;;;4995340;28;20133;-91
2022/07/20 08:18:25;;;;;;;13.35;4.80;;;28.30;92.20;;;;;;4991387;28;20557;-90
2022/07/20 08:20:51;;;;;;;13.25;4.70;;;28.30;92.10;;;;;;5008566;28;20050;-91
2022/07/20 08:23:17;;;;;;;13.50;6.13;;;28.30;92.40;;;;;;4991817;28;20050;-90
2022/07/20 08:25:44;;;;;;;16.40;6.03;;;28.30;92.50;;;;;;4992439;28;20056;-92
2022/07/20 08:28:13;;;;;;;13.15;5.20;;;28.30;92.50;;;;;;4983831;28;20149;-91
2022/07/20 08:30:43;;;;;;;12.45;5.45;;;28.40;93.40;;;;;;4991815;28;20493;-91
2022/07/20 08:33:09;;;;;;;16.05;5.90;;;28.50;93.40;;;;;;4994321;28;20482;-91
2022/07/20 08:35:36;;;;;;;14.95;5.55;;;28.60;93.60;;;;;;4993082;28;20429;-92
2022/07/20 08:38:04;;;;;;;11.40;5.55;;;28.70;94.30;;;;;;4995623;28;20064;-91
2022/07/20 08:40:31;;;;;;;17.90;6.40;;;28.80;94.70;;;;;;4987637;28;20154;-91
2022/07/20 08:42:57;;;;;;;18.67;6.45;;;28.90;94.90;;;;;;4991389;28;20034;-91
2022/07/20 08:45:23;;;;;;;19.73;6.50;;;29.00;94.60;;;;;;4994910;28;20054;-90
2022/07/20 08:47:50;;;;;;;19.25;7.05;;;29.00;94.60;;;;;;4992459;28;20093;-91
2022/07/20 08:50:24;;;;;;;19.77;7.85;;;29.10;95.10;;;;;;5010540;28;20041;-92
2022/07/20 08:52:50;;;;;;;19.60;8.00;;;29.20;95.80;;;;;;4995197;28;20128;-91
2022/07/20 08:55:16;;;;;;;21.05;9.20;;;29.10;95.80;;;;;;4994711;28;20053;-91
2022/07/20 08:57:42;;;;;;;21.90;9.35;;;29.10;96.30;;;;;;5011241;28;20054;-93
2022/07/20 09:00:09;;;;;;;25.38;10.20;;;29.10;96.70;;;;;;5010931;28;20064;-91
2022/07/20 09:02:55;;;;;;;24.20;10.00;;;29.10;97.00;;;;;;4994021;28;20215;-91
2022/07/20 09:05:24;;;;;;;23.08;10.13;;;29.10;97.40;;;;;;5003823;28;20127;-91
2022/07/20 09:07:52;;;;;;;26.65;10.23;;;29.10;97.90;;;;;;4995553;28;20092;-89
2022/07/20 09:10:22;;;;;;;25.10;11.20;;;29.10;98.20;;;;;;4994390;28;20046;-91
2022/07/20 09:12:49;;;;;;;29.48;11.43;;;29.10;98.30;;;;;;4995926;28;20049;-92
2022/07/20 09:15:27;;;;;;;29.55;12.23;;;29.10;98.40;;;;;;5011596;28;20096;-91
2022/07/20 09:18:05;;;;;;;24.38;11.88;;;29.10;98.40;;;;;;4994212;28;20050;-91
2022/07/20 09:20:34;;;;;;;23.25;11.88;;;29.10;98.90;;;;;;4994088;28;20049;-91
2022/07/20 09:23:02;;;;;;;22.95;12.77;;;29.10;99.60;;;;;;4995421;28;20120;-93
2022/07/20 09:25:28;;;;;;;27.77;12.45;;;29.20;99.90;;;;;;4993903;28;20060;-90
2022/07/20 09:27:55;;;;;;;22.90;12.93;;;29.30;99.90;;;;;;4998978;28;20042;-95
2022/07/20 09:30:21;;;;;;;31.38;13.68;;;29.40;99.90;;;;;;4999498;28;20084;-94
2022/07/20 09:32:52;;;;;;;26.20;13.95;;;29.50;99.90;;;;;;4998341;28;20085;-95
2022/07/20 09:35:20;;;;;;;39.28;15.57;;;29.50;99.90;;;;;;4998023;28;20037;-96
2022/07/20 09:37:46;;;;;;;28.40;13.50;;;29.40;99.90;;;;;;4998643;28;20042;-96
2022/07/20 09:40:13;;;;;;;34.35;15.93;;;29.50;99.90;;;;;;4997506;28;20493;-92
2022/07/20 09:42:43;;;;;;;28.58;15.02;;;29.40;99.90;;;;;;4998129;28;20064;-92
2022/07/20 09:45:20;;;;;;;32.83;14.93;;;29.30;99.90;;;;;;4997584;28;20099;-93
2022/07/20 09:48:00;;;;;;;31.45;15.25;;;29.20;99.90;;;;;;4998491;28;20037;-92
2022/07/20 09:50:28;;;;;;;30.30;15.88;;;29.20;99.90;;;;;;4997106;28;20049;-95
2022/07/20 09:52:53;;;;;;;31.67;15.48;;;29.20;99.90;;;;;;4997843;28;20049;-91
2022/07/20 09:55:19;;;;;;;30.60;15.55;;;29.30;99.90;;;;;;4997190;28;20167;-93
2022/07/20 09:57:45;;;;;;;30.42;14.13;;;29.30;99.90;;;;;;4998196;28;20041;-94
2022/07/20 10:00:12;;;;;;;30.35;15.27;;;29.30;99.90;;;;;;4996481;28;20049;-92
2022/07/20 10:02:38;;;;;;;24.10;14.75;;;29.30;99.90;;;;;;4997599;28;20041;-91
2022/07/20 10:05:04;;;;;;;35.05;14.68;;;29.40;99.90;;;;;;4994129;28;20440;-94
2022/07/20 10:07:30;;;;;;;27.27;14.23;;;29.40;99.90;;;;;;4997656;28;20052;-93
2022/07/20 10:09:57;;;;;;;26.58;14.38;;;29.40;99.40;;;;;;4998397;28;20041;-93
2022/07/20 10:12:22;;;;;;;26.63;14.70;;;29.40;99.30;;;;;;4998039;28;20101;-92
2022/07/20 10:14:51;;;;;;;30.50;14.90;;;29.40;99.00;;;;;;4998860;28;20127;-94
2022/07/20 10:17:17;;;;;;;25.02;13.98;;;29.40;99.40;;;;;;4998281;28;20053;-94
2022/07/20 10:19:46;;;;;;;26.83;13.85;;;29.50;98.60;;;;;;4999088;28;20065;-95
2022/07/20 10:22:12;;;;;;;27.10;13.38;;;29.60;98.60;;;;;;4997937;28;20179;-91
2022/07/20 10:24:39;;;;;;;31.38;14.57;;;29.60;98.10;;;;;;4997343;28;20067;-93
2022/07/20 10:27:06;;;;;;;23.90;13.48;;;29.70;98.30;;;;;;4996013;28;20120;-93
2022/07/20 10:29:34;;;;;;;21.55;12.43;;;29.80;97.20;;;;;;4997145;28;20045;-91
2022/07/20 10:32:14;;;;;;;18.73;10.75;;;29.80;95.30;;;;;;5000489;28;20401;-91
2022/07/20 10:34:43;;;;;;;23.00;10.70;;;29.70;93.60;;;;;;4999413;28;20046;-91
2022/07/20 10:37:25;;;;;;;20.23;11.52;;;29.70;93.20;;;;;;4984108;28;20049;-90
2022/07/20 10:39:56;;;;;;;20.70;10.98;;;29.60;92.60;;;;;;4976857;28;20136;-92
2022/07/20 10:42:28;;;;;;;26.50;12.07;;;29.60;93.00;;;;;;4988608;28;20511;-92
2022/07/20 10:45:15;;;;;;;22.65;11.57;;;29.70;93.50;;;;;;4993933;28;20054;-91
2022/07/20 10:47:43;;;;;;;22.30;11.23;;;29.70;93.50;;;;;;4993940;28;20046;-90
2022/07/20 10:50:20;;;;;;;20.92;9.93;;;29.70;93.00;;;;;;4992335;28;20050;-90
2022/07/20 10:52:48;;;;;;;25.63;10.30;;;29.70;91.90;;;;;;4978198;28;20046;-90
2022/07/20 10:55:34;;;;;;;18.88;9.45;;;29.60;91.90;;;;;;4993207;28;20049;-92
2022/07/20 10:58:01;;;;;;;23.10;9.13;;;29.70;92.30;;;;;;4994466;28;20046;-90
2022/07/20 11:00:34;;;;;;;19.45;9.57;;;29.70;92.10;;;;;;4977115;28;20046;-92
2022/07/20 11:03:01;;;;;;;24.63;9.07;;;29.70;93.20;;;;;;4977432;28;20041;-91
2022/07/20 11:05:27;;;;;;;17.92;9.52;;;29.80;93.20;;;;;;4976209;28;20065;-93
2022/07/20 11:07:53;;;;;;;19.95;8.65;;;29.90;92.40;;;;;;4978514;28;20466;-94
2022/07/20 11:10:22;;;;;;;15.23;7.93;;;29.80;92.00;;;;;;4978088;28;20042;-92
2022/07/20 11:12:57;;;;;;;20.60;7.10;;;29.80;91.70;;;;;;4978365;28;20046;-92
2022/07/20 11:15:36;;;;;;;15.70;7.40;;;29.70;90.90;;;;;;4993085;28;20050;-93
2022/07/20 11:18:02;;;;;;;17.30;7.97;;;29.70;91.00;;;;;;4994019;28;20049;-92
2022/07/20 11:20:28;;;;;;;17.05;7.65;;;29.80;90.30;;;;;;4977745;28;20401;-94
2022/07/20 11:23:00;;;;;;;21.42;7.60;;;29.80;89.30;;;;;;4978324;28;20041;-93
2022/07/20 11:25:28;;;;;;;11.88;6.45;;;29.80;87.70;;;;;;4994139;28;20500;-93
2022/07/20 11:28:01;;;;;;;16.13;6.68;;;29.80;87.90;;;;;;4994738;28;20042;-94
2022/07/20 11:30:32;;;;;;;12.40;6.45;;;29.90;87.30;;;;;;4982836;28;20045;-90
2022/07/20 11:32:58;;;;;;;16.45;6.75;;;30.00;86.50;;;;;;4997488;28;20056;-92
2022/07/20 11:35:24;;;;;;;17.85;7.50;;;30.00;87.30;;;;;;4996894;28;20132;-90
2022/07/20 11:37:52;;;;;;;20.20;6.75;;;30.00;86.20;;;;;;4997054;28;20141;-93
2022/07/20 11:40:25;;;;;;;14.57;7.50;;;29.90;85.90;;;;;;4998001;28;20049;-91
2022/07/20 11:43:07;;;;;;;;;;;30.00;85.00;;;;;;4998215;28;20044;-92
2022/07/20 11:45:35;;;;;;;19.58;7.25;;;29.90;86.20;;;;;;4997077;28;19929;-90
2022/07/20 11:48:14;;;;;;;14.63;7.75;;;30.00;88.10;;;;;;4996242;28;20504;-91
2022/07/20 11:50:43;;;;;;;16.55;7.93;;;30.10;88.70;;;;;;4995972;28;20130;-92
2022/07/20 11:53:27;;;;;;;15.27;7.60;;;30.10;88.30;;;;;;4997094;28;20046;-91
2022/07/20 11:55:55;;;;;;;19.90;7.93;;;30.20;88.70;;;;;;4996853;28;20394;-92
2022/07/20 11:58:28;;;;;;;16.52;6.93;;;30.20;88.50;;;;;;4997097;28;20044;-90
2022/07/20 12:00:58;;;;;;;15.13;6.82;;;30.30;88.30;;;;;;4997018;28;20059;-93
2022/07/20 12:03:28;;;;;;;16.83;7.38;;;30.50;87.60;;;;;;4996428;28;20104;-91
2022/07/20 12:05:55;;;;;;;12.90;6.90;;;30.40;88.20;;;;;;4996518;28;20068;-93
2022/07/20 12:08:24;;;;;;;16.23;7.32;;;30.30;87.90;;;;;;4996696;28;20068;-93
2022/07/20 12:10:50;;;;;;;12.20;5.45;;;30.40;87.90;;;;;;4996068;28;20045;-91
2022/07/20 12:13:17;;;;;;;16.05;6.15;;;30.20;84.70;;;;;;4995977;28;20092;-90
2022/07/20 12:15:58;;;;;;;16.85;6.18;;;30.20;84.90;;;;;;4996290;28;20140;-90
2022/07/20 12:18:34;;;;;;;19.17;5.90;;;30.20;83.20;;;;;;4996367;28;20093;-91
2022/07/20 12:21:01;;;;;;;14.95;6.15;;;30.20;86.00;;;;;;4996510;28;20060;-91
2022/07/20 12:23:28;;;;;;;14.85;6.22;;;30.20;85.70;;;;;;4996152;28;20049;-91
2022/07/20 12:25:54;;;;;;;11.60;5.32;;;30.20;86.20;;;;;;4996417;28;20132;-89
2022/07/20 12:28:31;;;;;;;11.65;5.22;;;30.30;87.30;;;;;;4995714;28;20087;-91
2022/07/20 12:31:11;;;;;;;18.67;5.20;;;30.40;84.70;;;;;;4995458;28;20481;-91
2022/07/20 12:33:38;;;;;;;14.02;5.35;;;30.40;83.30;;;;;;4995532;28;20516;-92
2022/07/20 12:36:06;;;;;;;9.27;4.90;;;30.40;82.60;;;;;;4994028;28;20042;-91
2022/07/20 12:38:34;;;;;;;11.27;5.07;;;30.40;80.90;;;;;;4995295;28;20045;-91
2022/07/20 12:41:11;;;;;;;15.98;5.63;;;30.40;81.10;;;;;;4994583;28;20041;-91
2022/07/20 12:43:40;;;;;;;10.38;5.03;;;30.40;83.20;;;;;;4994543;28;20056;-91
2022/07/20 12:46:10;;;;;;;14.73;5.80;;;30.50;84.50;;;;;;4994768;28;20136;-91
2022/07/20 12:48:38;;;;;;;12.63;5.20;;;30.50;84.30;;;;;;4994123;28;20091;-92